LIEO

Olbia – Costa Smeralda Airport

Airport
ICAO code
LIEO
IATA Code
OLB
Summary
ICAO Region
EUR
ICAO Territory
Location

Olbia, Sardinia

Serving
Olbia
Elevation
37 ft
Coordinates
40° 54' 9" N , 9° 30' 53" E
KCC
Metar
LIEO 210750Z 35003KT 300V030 CAVOK 30/22 Q1008

Olbia Costa Smeralda Airport is an airport in Olbia, Sardinia.

Climatology

Warm mediterranean climate (Köppen climate classification Csa)

Runways

Designator Length Width Surface Rops
5/23 2446 45 ASP Yes/Yes

Airport map

Aerial View

SKYbrary Partners:

Safety knowledge contributed by: